sensor_id;sensor_type;location;lat;lon;timestamp;temperature;humidity
78694;SHT31;68029;51.978;5.646;2023-11-21T00:01:32;11.1;71.1
78694;SHT31;68029;51.978;5.646;2023-11-21T00:04:00;11.1;71.0
78694;SHT31;68029;51.978;5.646;2023-11-21T00:06:29;11.0;71.2
78694;SHT31;68029;51.978;5.646;2023-11-21T00:08:58;11.0;71.2
78694;SHT31;68029;51.978;5.646;2023-11-21T00:11:26;11.0;71.2
78694;SHT31;68029;51.978;5.646;2023-11-21T00:13:55;10.9;71.3
78694;SHT31;68029;51.978;5.646;2023-11-21T00:16:24;10.9;71.2
78694;SHT31;68029;51.978;5.646;2023-11-21T00:18:52;10.9;71.2
78694;SHT31;68029;51.978;5.646;2023-11-21T00:21:20;10.9;71.3
78694;SHT31;68029;51.978;5.646;2023-11-21T00:23:51;10.8;71.3
78694;SHT31;68029;51.978;5.646;2023-11-21T00:26:19;10.8;71.4
78694;SHT31;68029;51.978;5.646;2023-11-21T00:28:48;10.8;71.3
78694;SHT31;68029;51.978;5.646;2023-11-21T00:31:17;10.8;71.3
78694;SHT31;68029;51.978;5.646;2023-11-21T00:33:45;10.7;71.5
78694;SHT31;68029;51.978;5.646;2023-11-21T00:36:15;10.7;71.4
78694;SHT31;68029;51.978;5.646;2023-11-21T00:38:43;10.7;71.6
78694;SHT31;68029;51.978;5.646;2023-11-21T00:41:14;10.6;71.6
78694;SHT31;68029;51.978;5.646;2023-11-21T00:43:43;10.6;71.7
78694;SHT31;68029;51.978;5.646;2023-11-21T00:46:12;10.6;71.5
78694;SHT31;68029;51.978;5.646;2023-11-21T00:48:40;10.6;71.5
78694;SHT31;68029;51.978;5.646;2023-11-21T00:51:09;10.6;71.9
78694;SHT31;68029;51.978;5.646;2023-11-21T00:53:37;10.5;71.5
78694;SHT31;68029;51.978;5.646;2023-11-21T00:56:07;10.5;71.4
78694;SHT31;68029;51.978;5.646;2023-11-21T00:58:35;10.5;71.4
78694;SHT31;68029;51.978;5.646;2023-11-21T01:01:04;10.5;71.3
78694;SHT31;68029;51.978;5.646;2023-11-21T01:03:33;10.4;71.5
78694;SHT31;68029;51.978;5.646;2023-11-21T01:06:02;10.4;71.8
78694;SHT31;68029;51.978;5.646;2023-11-21T01:08:34;10.4;71.8
78694;SHT31;68029;51.978;5.646;2023-11-21T01:11:02;10.4;72.2
78694;SHT31;68029;51.978;5.646;2023-11-21T01:13:34;10.4;72.6
78694;SHT31;68029;51.978;5.646;2023-11-21T01:16:06;10.3;73.3
78694;SHT31;68029;51.978;5.646;2023-11-21T01:18:35;10.3;73.7
78694;SHT31;68029;51.978;5.646;2023-11-21T01:21:05;10.3;74.0
78694;SHT31;68029;51.978;5.646;2023-11-21T01:23:34;10.3;74.5
78694;SHT31;68029;51.978;5.646;2023-11-21T01:26:02;10.3;74.7
78694;SHT31;68029;51.978;5.646;2023-11-21T01:28:31;10.3;74.6
78694;SHT31;68029;51.978;5.646;2023-11-21T01:31:00;10.4;74.7
78694;SHT31;68029;51.978;5.646;2023-11-21T01:33:28;10.4;74.6
78694;SHT31;68029;51.978;5.646;2023-11-21T01:35:56;10.4;74.4
78694;SHT31;68029;51.978;5.646;2023-11-21T01:38:26;10.4;74.5
78694;SHT31;68029;51.978;5.646;2023-11-21T01:40:54;10.4;74.4
78694;SHT31;68029;51.978;5.646;2023-11-21T01:43:23;10.4;74.6
78694;SHT31;68029;51.978;5.646;2023-11-21T01:45:51;10.4;74.6
78694;SHT31;68029;51.978;5.646;2023-11-21T01:48:20;10.4;74.4
78694;SHT31;68029;51.978;5.646;2023-11-21T01:50:51;10.4;74.1
78694;SHT31;68029;51.978;5.646;2023-11-21T01:53:19;10.4;73.8
78694;SHT31;68029;51.978;5.646;2023-11-21T01:55:50;10.4;73.8
78694;SHT31;68029;51.978;5.646;2023-11-21T01:58:20;10.4;73.2
78694;SHT31;68029;51.978;5.646;2023-11-21T02:00:49;10.4;73.0
78694;SHT31;68029;51.978;5.646;2023-11-21T02:03:21;10.4;72.8
78694;SHT31;68029;51.978;5.646;2023-11-21T02:05:51;10.4;72.8
78694;SHT31;68029;51.978;5.646;2023-11-21T02:08:20;10.4;73.0
78694;SHT31;68029;51.978;5.646;2023-11-21T02:10:48;10.4;72.8
78694;SHT31;68029;51.978;5.646;2023-11-21T02:13:17;10.4;73.3
78694;SHT31;68029;51.978;5.646;2023-11-21T02:15:45;10.3;73.9
78694;SHT31;68029;51.978;5.646;2023-11-21T02:18:16;10.3;73.7
78694;SHT31;68029;51.978;5.646;2023-11-21T02:20:44;10.3;73.3
78694;SHT31;68029;51.978;5.646;2023-11-21T02:23:13;10.3;73.3
78694;SHT31;68029;51.978;5.646;2023-11-21T02:25:41;10.3;73.5
78694;SHT31;68029;51.978;5.646;2023-11-21T02:28:10;10.3;74.2
78694;SHT31;68029;51.978;5.646;2023-11-21T02:30:41;10.3;74.4
78694;SHT31;68029;51.978;5.646;2023-11-21T02:33:10;10.3;74.7
78694;SHT31;68029;51.978;5.646;2023-11-21T02:35:40;10.3;74.5
78694;SHT31;68029;51.978;5.646;2023-11-21T02:38:09;10.3;74.7
78694;SHT31;68029;51.978;5.646;2023-11-21T02:40:38;10.3;75.0
78694;SHT31;68029;51.978;5.646;2023-11-21T02:43:06;10.3;75.1
78694;SHT31;68029;51.978;5.646;2023-11-21T02:45:37;10.3;75.4
78694;SHT31;68029;51.978;5.646;2023-11-21T02:48:08;10.3;75.7
78694;SHT31;68029;51.978;5.646;2023-11-21T02:50:36;10.3;76.0
78694;SHT31;68029;51.978;5.646;2023-11-21T02:53:07;10.3;76.0
78694;SHT31;68029;51.978;5.646;2023-11-21T02:55:37;10.3;76.3
78694;SHT31;68029;51.978;5.646;2023-11-21T02:58:07;10.3;76.4
78694;SHT31;68029;51.978;5.646;2023-11-21T03:00:36;10.3;76.4
78694;SHT31;68029;51.978;5.646;2023-11-21T03:03:06;10.4;76.2
78694;SHT31;68029;51.978;5.646;2023-11-21T03:05:34;10.4;76.6
78694;SHT31;68029;51.978;5.646;2023-11-21T03:08:05;10.4;76.6
78694;SHT31;68029;51.978;5.646;2023-11-21T03:10:33;10.4;76.4
78694;SHT31;68029;51.978;5.646;2023-11-21T03:13:02;10.4;76.3
78694;SHT31;68029;51.978;5.646;2023-11-21T03:15:30;10.4;75.9
78694;SHT31;68029;51.978;5.646;2023-11-21T03:18:01;10.4;75.6
78694;SHT31;68029;51.978;5.646;2023-11-21T03:20:31;10.4;75.2
78694;SHT31;68029;51.978;5.646;2023-11-21T03:23:01;10.5;75.2
78694;SHT31;68029;51.978;5.646;2023-11-21T03:25:30;10.5;75.5
78694;SHT31;68029;51.978;5.646;2023-11-21T03:27:58;10.5;75.8
78694;SHT31;68029;51.978;5.646;2023-11-21T03:30:27;10.5;76.0
78694;SHT31;68029;51.978;5.646;2023-11-21T03:32:55;10.5;76.0
78694;SHT31;68029;51.978;5.646;2023-11-21T03:35:24;10.5;75.9
78694;SHT31;68029;51.978;5.646;2023-11-21T03:37:54;10.6;75.8
78694;SHT31;68029;51.978;5.646;2023-11-21T03:40:24;10.6;75.9
78694;SHT31;68029;51.978;5.646;2023-11-21T03:42:53;10.6;76.0
78694;SHT31;68029;51.978;5.646;2023-11-21T03:45:21;10.6;76.1
78694;SHT31;68029;51.978;5.646;2023-11-21T03:47:50;10.6;76.1
78694;SHT31;68029;51.978;5.646;2023-11-21T03:50:19;10.6;76.2
78694;SHT31;68029;51.978;5.646;2023-11-21T03:52:47;10.7;76.2
78694;SHT31;68029;51.978;5.646;2023-11-21T03:55:16;10.7;76.1
78694;SHT31;68029;51.978;5.646;2023-11-21T03:57:44;10.7;76.1
78694;SHT31;68029;51.978;5.646;2023-11-21T04:00:13;10.7;76.2
78694;SHT31;68029;51.978;5.646;2023-11-21T04:02:42;10.7;76.5
78694;SHT31;68029;51.978;5.646;2023-11-21T04:05:12;10.8;76.3
78694;SHT31;68029;51.978;5.646;2023-11-21T04:07:40;10.8;76.1
78694;SHT31;68029;51.978;5.646;2023-11-21T04:10:09;10.8;76.1
78694;SHT31;68029;51.978;5.646;2023-11-21T04:12:39;10.8;76.2
78694;SHT31;68029;51.978;5.646;2023-11-21T04:15:09;10.9;76.2
78694;SHT31;68029;51.978;5.646;2023-11-21T04:17:39;10.9;76.2
78694;SHT31;68029;51.978;5.646;2023-11-21T04:20:09;10.9;76.3
78694;SHT31;68029;51.978;5.646;2023-11-21T04:22:39;10.9;76.2
78694;SHT31;68029;51.978;5.646;2023-11-21T04:25:12;11.0;75.9
78694;SHT31;68029;51.978;5.646;2023-11-21T04:27:44;11.0;75.7
78694;SHT31;68029;51.978;5.646;2023-11-21T04:30:14;11.0;75.4
78694;SHT31;68029;51.978;5.646;2023-11-21T04:32:43;11.0;75.6
78694;SHT31;68029;51.978;5.646;2023-11-21T04:35:11;10.9;75.9
78694;SHT31;68029;51.978;5.646;2023-11-21T04:37:41;10.9;76.1
78694;SHT31;68029;51.978;5.646;2023-11-21T04:40:11;10.9;76.3
78694;SHT31;68029;51.978;5.646;2023-11-21T04:42:40;10.9;76.5
78694;SHT31;68029;51.978;5.646;2023-11-21T04:45:09;10.9;76.7
78694;SHT31;68029;51.978;5.646;2023-11-21T04:47:38;10.9;76.8
78694;SHT31;68029;51.978;5.646;2023-11-21T04:50:07;10.9;76.8
78694;SHT31;68029;51.978;5.646;2023-11-21T04:52:36;11.0;76.9
78694;SHT31;68029;51.978;5.646;2023-11-21T04:55:05;11.0;76.7
78694;SHT31;68029;51.978;5.646;2023-11-21T04:57:36;11.0;76.8
78694;SHT31;68029;51.978;5.646;2023-11-21T05:00:06;11.0;76.4
78694;SHT31;68029;51.978;5.646;2023-11-21T05:02:35;11.0;76.6
78694;SHT31;68029;51.978;5.646;2023-11-21T05:05:05;11.0;76.7
78694;SHT31;68029;51.978;5.646;2023-11-21T05:07:36;11.1;76.7
78694;SHT31;68029;51.978;5.646;2023-11-21T05:10:07;11.1;76.8
78694;SHT31;68029;51.978;5.646;2023-11-21T05:12:39;11.1;76.7
78694;SHT31;68029;51.978;5.646;2023-11-21T05:15:08;11.1;76.8
78694;SHT31;68029;51.978;5.646;2023-11-21T05:17:39;11.1;76.7
78694;SHT31;68029;51.978;5.646;2023-11-21T05:20:10;11.1;76.5
78694;SHT31;68029;51.978;5.646;2023-11-21T05:22:40;11.2;76.3
78694;SHT31;68029;51.978;5.646;2023-11-21T05:25:09;11.2;76.5
78694;SHT31;68029;51.978;5.646;2023-11-21T05:27:38;11.2;76.3
78694;SHT31;68029;51.978;5.646;2023-11-21T05:30:08;11.2;76.5
78694;SHT31;68029;51.978;5.646;2023-11-21T05:32:38;11.2;76.4
78694;SHT31;68029;51.978;5.646;2023-11-21T05:35:09;11.2;76.9
78694;SHT31;68029;51.978;5.646;2023-11-21T05:37:41;11.2;76.7
78694;SHT31;68029;51.978;5.646;2023-11-21T05:40:11;11.2;76.6
78694;SHT31;68029;51.978;5.646;2023-11-21T05:42:40;11.2;76.8
78694;SHT31;68029;51.978;5.646;2023-11-21T05:45:10;11.2;76.6
78694;SHT31;68029;51.978;5.646;2023-11-21T05:47:40;11.2;76.7
78694;SHT31;68029;51.978;5.646;2023-11-21T05:50:11;11.2;76.7
78694;SHT31;68029;51.978;5.646;2023-11-21T05:52:42;11.3;76.3
78694;SHT31;68029;51.978;5.646;2023-11-21T05:55:11;11.3;76.5
78694;SHT31;68029;51.978;5.646;2023-11-21T05:57:42;11.3;76.8
78694;SHT31;68029;51.978;5.646;2023-11-21T06:00:14;11.3;76.9
78694;SHT31;68029;51.978;5.646;2023-11-21T06:02:47;11.3;76.9
78694;SHT31;68029;51.978;5.646;2023-11-21T06:05:21;11.3;76.7
78694;SHT31;68029;51.978;5.646;2023-11-21T06:07:50;11.3;77.0
78694;SHT31;68029;51.978;5.646;2023-11-21T06:10:20;11.3;76.9
78694;SHT31;68029;51.978;5.646;2023-11-21T06:12:50;11.3;76.7
78694;SHT31;68029;51.978;5.646;2023-11-21T06:15:19;11.3;76.8
78694;SHT31;68029;51.978;5.646;2023-11-21T06:17:50;11.3;76.8
78694;SHT31;68029;51.978;5.646;2023-11-21T06:20:21;11.3;77.0
78694;SHT31;68029;51.978;5.646;2023-11-21T06:22:50;11.3;77.0
78694;SHT31;68029;51.978;5.646;2023-11-21T06:25:20;11.2;77.3
78694;SHT31;68029;51.978;5.646;2023-11-21T06:27:49;11.2;77.4
78694;SHT31;68029;51.978;5.646;2023-11-21T06:30:20;11.2;77.4
78694;SHT31;68029;51.978;5.646;2023-11-21T06:32:49;11.3;77.5
78694;SHT31;68029;51.978;5.646;2023-11-21T06:35:19;11.3;77.4
78694;SHT31;68029;51.978;5.646;2023-11-21T06:37:47;11.3;77.7
78694;SHT31;68029;51.978;5.646;2023-11-21T06:40:18;11.3;77.5
78694;SHT31;68029;51.978;5.646;2023-11-21T06:42:48;11.3;77.6
78694;SHT31;68029;51.978;5.646;2023-11-21T06:45:18;11.3;77.6
78694;SHT31;68029;51.978;5.646;2023-11-21T06:47:48;11.3;77.2
78694;SHT31;68029;51.978;5.646;2023-11-21T06:50:17;11.3;77.4
78694;SHT31;68029;51.978;5.646;2023-11-21T06:52:46;11.3;77.3
78694;SHT31;68029;51.978;5.646;2023-11-21T06:55:17;11.3;77.3
78694;SHT31;68029;51.978;5.646;2023-11-21T06:57:45;11.3;77.3
78694;SHT31;68029;51.978;5.646;2023-11-21T07:00:17;11.3;77.4
78694;SHT31;68029;51.978;5.646;2023-11-21T07:02:46;11.3;77.6
78694;SHT31;68029;51.978;5.646;2023-11-21T07:05:15;11.3;77.3
78694;SHT31;68029;51.978;5.646;2023-11-21T07:07:47;11.3;77.4
78694;SHT31;68029;51.978;5.646;2023-11-21T07:10:16;11.3;77.6
78694;SHT31;68029;51.978;5.646;2023-11-21T07:12:45;11.3;77.8
78694;SHT31;68029;51.978;5.646;2023-11-21T07:15:15;11.3;77.7
78694;SHT31;68029;51.978;5.646;2023-11-21T07:17:45;11.3;77.7
78694;SHT31;68029;51.978;5.646;2023-11-21T07:20:16;11.3;77.8
78694;SHT31;68029;51.978;5.646;2023-11-21T07:22:45;11.3;77.7
78694;SHT31;68029;51.978;5.646;2023-11-21T07:25:13;11.3;77.9
78694;SHT31;68029;51.978;5.646;2023-11-21T07:27:42;11.3;78.1
78694;SHT31;68029;51.978;5.646;2023-11-21T07:30:12;11.4;78.2
78694;SHT31;68029;51.978;5.646;2023-11-21T07:32:42;11.4;78.1
78694;SHT31;68029;51.978;5.646;2023-11-21T07:35:12;11.4;78.0
78694;SHT31;68029;51.978;5.646;2023-11-21T07:37:41;11.4;78.2
78694;SHT31;68029;51.978;5.646;2023-11-21T07:40:10;11.5;78.1
78694;SHT31;68029;51.978;5.646;2023-11-21T07:42:39;11.5;77.9
78694;SHT31;68029;51.978;5.646;2023-11-21T07:45:10;11.5;78.0
78694;SHT31;68029;51.978;5.646;2023-11-21T07:47:40;11.5;77.9
78694;SHT31;68029;51.978;5.646;2023-11-21T07:50:10;11.6;77.8
78694;SHT31;68029;51.978;5.646;2023-11-21T07:52:39;11.6;77.9
78694;SHT31;68029;51.978;5.646;2023-11-21T07:55:08;11.6;77.7
78694;SHT31;68029;51.978;5.646;2023-11-21T07:57:37;11.7;77.7
78694;SHT31;68029;51.978;5.646;2023-11-21T08:00:08;11.7;78.0
78694;SHT31;68029;51.978;5.646;2023-11-21T08:02:38;11.7;77.7
78694;SHT31;68029;51.978;5.646;2023-11-21T08:05:09;11.7;78.1
78694;SHT31;68029;51.978;5.646;2023-11-21T08:07:39;11.7;78.1
78694;SHT31;68029;51.978;5.646;2023-11-21T08:10:08;11.8;78.0
78694;SHT31;68029;51.978;5.646;2023-11-21T08:12:38;11.8;77.8
78694;SHT31;68029;51.978;5.646;2023-11-21T08:15:10;11.8;77.8
78694;SHT31;68029;51.978;5.646;2023-11-21T08:17:38;11.8;77.7
78694;SHT31;68029;51.978;5.646;2023-11-21T08:20:08;11.9;77.6
78694;SHT31;68029;51.978;5.646;2023-11-21T08:22:37;11.9;77.5
78694;SHT31;68029;51.978;5.646;2023-11-21T08:25:08;11.9;77.4
78694;SHT31;68029;51.978;5.646;2023-11-21T08:27:36;11.9;77.2
78694;SHT31;68029;51.978;5.646;2023-11-21T08:30:06;11.9;77.2
78694;SHT31;68029;51.978;5.646;2023-11-21T08:32:37;11.9;77.3
78694;SHT31;68029;51.978;5.646;2023-11-21T08:35:08;11.9;77.6
78694;SHT31;68029;51.978;5.646;2023-11-21T08:37:38;11.9;78.0
78694;SHT31;68029;51.978;5.646;2023-11-21T08:40:07;11.9;78.1
78694;SHT31;68029;51.978;5.646;2023-11-21T08:42:38;11.9;78.4
78694;SHT31;68029;51.978;5.646;2023-11-21T08:45:08;11.9;78.4
78694;SHT31;68029;51.978;5.646;2023-11-21T08:47:37;11.9;78.7
78694;SHT31;68029;51.978;5.646;2023-11-21T08:50:06;11.9;78.6
78694;SHT31;68029;51.978;5.646;2023-11-21T08:52:35;12.0;78.6
78694;SHT31;68029;51.978;5.646;2023-11-21T08:55:05;12.0;78.4
78694;SHT31;68029;51.978;5.646;2023-11-21T08:57:39;12.0;78.5
78694;SHT31;68029;51.978;5.646;2023-11-21T09:00:10;12.1;78.2
78694;SHT31;68029;51.978;5.646;2023-11-21T09:02:40;12.1;78.2
78694;SHT31;68029;51.978;5.646;2023-11-21T09:05:10;12.2;78.3
78694;SHT31;68029;51.978;5.646;2023-11-21T09:07:41;12.2;78.0
78694;SHT31;68029;51.978;5.646;2023-11-21T09:10:13;12.2;78.0
78694;SHT31;68029;51.978;5.646;2023-11-21T09:12:41;12.3;78.1
78694;SHT31;68029;51.978;5.646;2023-11-21T09:15:10;12.3;77.9
78694;SHT31;68029;51.978;5.646;2023-11-21T09:17:40;12.4;77.4
78694;SHT31;68029;51.978;5.646;2023-11-21T09:20:13;12.4;77.6
78694;SHT31;68029;51.978;5.646;2023-11-21T09:22:41;12.4;77.3
78694;SHT31;68029;51.978;5.646;2023-11-21T09:25:11;12.4;77.3
78694;SHT31;68029;51.978;5.646;2023-11-21T09:27:40;12.4;77.4
78694;SHT31;68029;51.978;5.646;2023-11-21T09:30:09;12.5;77.9
78694;SHT31;68029;51.978;5.646;2023-11-21T09:32:40;12.5;78.0
78694;SHT31;68029;51.978;5.646;2023-11-21T09:35:13;12.5;78.0
78694;SHT31;68029;51.978;5.646;2023-11-21T09:37:44;12.5;78.0
78694;SHT31;68029;51.978;5.646;2023-11-21T09:40:13;12.5;78.1
78694;SHT31;68029;51.978;5.646;2023-11-21T09:42:51;12.6;78.3
78694;SHT31;68029;51.978;5.646;2023-11-21T09:45:25;12.6;78.1
78694;SHT31;68029;51.978;5.646;2023-11-21T09:47:56;12.6;78.1
78694;SHT31;68029;51.978;5.646;2023-11-21T09:50:26;12.6;78.5
78694;SHT31;68029;51.978;5.646;2023-11-21T09:53:08;12.7;78.5
78694;SHT31;68029;51.978;5.646;2023-11-21T09:55:35;12.7;79.0
78694;SHT31;68029;51.978;5.646;2023-11-21T09:58:05;12.7;78.9
78694;SHT31;68029;51.978;5.646;2023-11-21T10:00:40;12.8;78.6
78694;SHT31;68029;51.978;5.646;2023-11-21T10:03:09;12.8;79.0
78694;SHT31;68029;51.978;5.646;2023-11-21T10:05:39;12.9;79.0
78694;SHT31;68029;51.978;5.646;2023-11-21T10:08:10;12.9;78.9
78694;SHT31;68029;51.978;5.646;2023-11-21T10:10:43;13.0;78.1
78694;SHT31;68029;51.978;5.646;2023-11-21T10:13:14;13.0;77.8
78694;SHT31;68029;51.978;5.646;2023-11-21T10:15:49;13.0;77.6
78694;SHT31;68029;51.978;5.646;2023-11-21T10:18:19;13.0;77.7
78694;SHT31;68029;51.978;5.646;2023-11-21T10:20:50;13.1;77.4
78694;SHT31;68029;51.978;5.646;2023-11-21T10:23:21;13.1;77.2
78694;SHT31;68029;51.978;5.646;2023-11-21T10:25:50;13.1;77.1
78694;SHT31;68029;51.978;5.646;2023-11-21T10:28:21;13.1;77.5
78694;SHT31;68029;51.978;5.646;2023-11-21T10:30:50;13.1;76.6
78694;SHT31;68029;51.978;5.646;2023-11-21T10:33:28;13.1;76.4
78694;SHT31;68029;51.978;5.646;2023-11-21T10:35:56;13.1;76.5
78694;SHT31;68029;51.978;5.646;2023-11-21T10:38:29;13.1;75.9
78694;SHT31;68029;51.978;5.646;2023-11-21T10:41:04;13.1;75.8
78694;SHT31;68029;51.978;5.646;2023-11-21T10:43:35;13.1;76.1
78694;SHT31;68029;51.978;5.646;2023-11-21T10:46:05;13.0;76.0
78694;SHT31;68029;51.978;5.646;2023-11-21T10:48:33;13.0;76.0
78694;SHT31;68029;51.978;5.646;2023-11-21T10:51:06;13.0;76.3
78694;SHT31;68029;51.978;5.646;2023-11-21T10:53:38;13.0;76.4
78694;SHT31;68029;51.978;5.646;2023-11-21T10:56:09;13.0;77.0
78694;SHT31;68029;51.978;5.646;2023-11-21T10:58:45;12.9;77.1
78694;SHT31;68029;51.978;5.646;2023-11-21T11:01:17;12.9;77.5
78694;SHT31;68029;51.978;5.646;2023-11-21T11:03:47;12.9;77.0
78694;SHT31;68029;51.978;5.646;2023-11-21T11:06:17;12.9;77.2
78694;SHT31;68029;51.978;5.646;2023-11-21T11:08:48;13.0;77.1
78694;SHT31;68029;51.978;5.646;2023-11-21T11:11:18;13.0;76.9
78694;SHT31;68029;51.978;5.646;2023-11-21T11:13:46;13.0;76.4
78694;SHT31;68029;51.978;5.646;2023-11-21T11:16:16;13.0;76.1
78694;SHT31;68029;51.978;5.646;2023-11-21T11:18:46;12.9;76.3
78694;SHT31;68029;51.978;5.646;2023-11-21T11:21:24;12.9;76.1
78694;SHT31;68029;51.978;5.646;2023-11-21T11:24:17;12.9;75.9
78694;SHT31;68029;51.978;5.646;2023-11-21T11:26:59;12.9;76.3
78694;SHT31;68029;51.978;5.646;2023-11-21T11:29:33;12.9;76.0
78694;SHT31;68029;51.978;5.646;2023-11-21T11:32:12;12.8;75.9
78694;SHT31;68029;51.978;5.646;2023-11-21T11:34:50;12.8;76.5
78694;SHT31;68029;51.978;5.646;2023-11-21T11:37:23;12.8;76.7
78694;SHT31;68029;51.978;5.646;2023-11-21T11:39:52;12.7;77.1
78694;SHT31;68029;51.978;5.646;2023-11-21T11:42:22;12.7;77.2
78694;SHT31;68029;51.978;5.646;2023-11-21T11:44:53;12.7;77.3
78694;SHT31;68029;51.978;5.646;2023-11-21T11:47:27;12.7;77.4
78694;SHT31;68029;51.978;5.646;2023-11-21T11:50:01;12.7;77.5
78694;SHT31;68029;51.978;5.646;2023-11-21T11:52:35;12.7;77.2
78694;SHT31;68029;51.978;5.646;2023-11-21T11:55:06;12.7;77.5
78694;SHT31;68029;51.978;5.646;2023-11-21T11:57:37;12.7;77.8
78694;SHT31;68029;51.978;5.646;2023-11-21T12:00:35;12.7;77.9
78694;SHT31;68029;51.978;5.646;2023-11-21T12:03:09;12.7;78.2
78694;SHT31;68029;51.978;5.646;2023-11-21T12:05:38;12.8;78.3
78694;SHT31;68029;51.978;5.646;2023-11-21T12:08:11;12.8;78.0
78694;SHT31;68029;51.978;5.646;2023-11-21T12:10:40;12.8;77.4
78694;SHT31;68029;51.978;5.646;2023-11-21T12:13:10;12.8;77.5
78694;SHT31;68029;51.978;5.646;2023-11-21T12:15:40;12.8;77.7
78694;SHT31;68029;51.978;5.646;2023-11-21T12:18:09;12.8;77.5
78694;SHT31;68029;51.978;5.646;2023-11-21T12:20:38;12.9;77.7
78694;SHT31;68029;51.978;5.646;2023-11-21T12:23:08;12.9;78.1
78694;SHT31;68029;51.978;5.646;2023-11-21T12:25:38;12.9;78.1
78694;SHT31;68029;51.978;5.646;2023-11-21T12:28:07;13.0;77.7
78694;SHT31;68029;51.978;5.646;2023-11-21T12:30:37;13.0;77.1
78694;SHT31;68029;51.978;5.646;2023-11-21T12:33:06;13.0;76.4
78694;SHT31;68029;51.978;5.646;2023-11-21T12:35:36;13.0;76.5
78694;SHT31;68029;51.978;5.646;2023-11-21T12:38:05;13.0;76.3
78694;SHT31;68029;51.978;5.646;2023-11-21T12:40:35;13.0;76.4
78694;SHT31;68029;51.978;5.646;2023-11-21T12:43:04;13.0;76.2
78694;SHT31;68029;51.978;5.646;2023-11-21T12:45:36;13.0;75.9
78694;SHT31;68029;51.978;5.646;2023-11-21T12:48:05;13.0;75.3
78694;SHT31;68029;51.978;5.646;2023-11-21T12:50:39;13.0;75.7
78694;SHT31;68029;51.978;5.646;2023-11-21T12:53:09;13.0;75.6
78694;SHT31;68029;51.978;5.646;2023-11-21T12:55:38;13.0;75.7
78694;SHT31;68029;51.978;5.646;2023-11-21T12:58:09;13.0;75.6
78694;SHT31;68029;51.978;5.646;2023-11-21T13:00:42;13.0;75.5
78694;SHT31;68029;51.978;5.646;2023-11-21T13:03:13;12.9;75.3
78694;SHT31;68029;51.978;5.646;2023-11-21T13:05:45;12.9;75.6
78694;SHT31;68029;51.978;5.646;2023-11-21T13:08:17;12.9;75.8
78694;SHT31;68029;51.978;5.646;2023-11-21T13:10:49;12.8;76.2
78694;SHT31;68029;51.978;5.646;2023-11-21T13:13:18;12.8;76.3
78694;SHT31;68029;51.978;5.646;2023-11-21T13:15:52;12.8;76.7
78694;SHT31;68029;51.978;5.646;2023-11-21T13:18:22;12.8;76.4
78694;SHT31;68029;51.978;5.646;2023-11-21T13:20:52;12.8;76.7
78694;SHT31;68029;51.978;5.646;2023-11-21T13:23:21;12.8;77.2
78694;SHT31;68029;51.978;5.646;2023-11-21T13:25:50;12.8;76.8
78694;SHT31;68029;51.978;5.646;2023-11-21T13:28:19;12.9;76.7
78694;SHT31;68029;51.978;5.646;2023-11-21T13:30:50;12.9;76.4
78694;SHT31;68029;51.978;5.646;2023-11-21T13:33:21;12.9;76.4
78694;SHT31;68029;51.978;5.646;2023-11-21T13:35:54;12.9;75.3
78694;SHT31;68029;51.978;5.646;2023-11-21T13:38:25;12.9;75.2
78694;SHT31;68029;51.978;5.646;2023-11-21T13:40:58;12.9;75.5
78694;SHT31;68029;51.978;5.646;2023-11-21T13:43:27;12.9;75.2
78694;SHT31;68029;51.978;5.646;2023-11-21T13:45:57;12.9;75.3
78694;SHT31;68029;51.978;5.646;2023-11-21T13:48:30;13.0;75.5
78694;SHT31;68029;51.978;5.646;2023-11-21T13:51:05;13.0;75.6
78694;SHT31;68029;51.978;5.646;2023-11-21T13:53:41;13.0;75.3
78694;SHT31;68029;51.978;5.646;2023-11-21T13:56:11;13.0;75.0
78694;SHT31;68029;51.978;5.646;2023-11-21T13:58:42;13.0;74.9
78694;SHT31;68029;51.978;5.646;2023-11-21T14:01:17;13.1;74.5
78694;SHT31;68029;51.978;5.646;2023-11-21T14:03:58;13.1;74.6
78694;SHT31;68029;51.978;5.646;2023-11-21T14:06:34;13.1;74.3
78694;SHT31;68029;51.978;5.646;2023-11-21T14:09:07;13.1;74.3
78694;SHT31;68029;51.978;5.646;2023-11-21T14:11:36;13.1;74.3
78694;SHT31;68029;51.978;5.646;2023-11-21T14:14:04;13.1;74.3
78694;SHT31;68029;51.978;5.646;2023-11-21T14:16:32;13.0;74.2
78694;SHT31;68029;51.978;5.646;2023-11-21T14:19:01;13.0;73.8
78694;SHT31;68029;51.978;5.646;2023-11-21T14:21:34;12.9;73.5
78694;SHT31;68029;51.978;5.646;2023-11-21T14:24:03;12.9;73.6
78694;SHT31;68029;51.978;5.646;2023-11-21T14:26:35;12.8;73.5
78694;SHT31;68029;51.978;5.646;2023-11-21T14:29:04;12.7;74.0
78694;SHT31;68029;51.978;5.646;2023-11-21T14:31:33;12.6;73.9
78694;SHT31;68029;51.978;5.646;2023-11-21T14:34:03;12.6;74.3
78694;SHT31;68029;51.978;5.646;2023-11-21T14:36:34;12.5;74.4
78694;SHT31;68029;51.978;5.646;2023-11-21T14:39:05;12.5;74.4
78694;SHT31;68029;51.978;5.646;2023-11-21T14:41:39;12.4;74.4
78694;SHT31;68029;51.978;5.646;2023-11-21T14:44:10;12.4;75.0
78694;SHT31;68029;51.978;5.646;2023-11-21T14:46:41;12.4;74.9
78694;SHT31;68029;51.978;5.646;2023-11-21T14:49:12;12.4;75.1
78694;SHT31;68029;51.978;5.646;2023-11-21T14:51:51;12.3;75.0
78694;SHT31;68029;51.978;5.646;2023-11-21T14:54:30;12.3;75.2
78694;SHT31;68029;51.978;5.646;2023-11-21T14:57:13;12.3;75.5
78694;SHT31;68029;51.978;5.646;2023-11-21T14:59:48;12.3;75.2
78694;SHT31;68029;51.978;5.646;2023-11-21T15:02:19;12.2;75.2
78694;SHT31;68029;51.978;5.646;2023-11-21T15:04:53;12.2;75.3
78694;SHT31;68029;51.978;5.646;2023-11-21T15:07:27;12.2;75.4
78694;SHT31;68029;51.978;5.646;2023-11-21T15:09:55;12.2;74.9
78694;SHT31;68029;51.978;5.646;2023-11-21T15:12:24;12.1;74.8
78694;SHT31;68029;51.978;5.646;2023-11-21T15:14:57;12.1;74.5
78694;SHT31;68029;51.978;5.646;2023-11-21T15:17:26;12.0;74.5
78694;SHT31;68029;51.978;5.646;2023-11-21T15:19:57;12.0;74.5
78694;SHT31;68029;51.978;5.646;2023-11-21T15:22:26;11.9;74.6
78694;SHT31;68029;51.978;5.646;2023-11-21T15:24:56;11.9;74.4
78694;SHT31;68029;51.978;5.646;2023-11-21T15:27:24;11.8;74.2
78694;SHT31;68029;51.978;5.646;2023-11-21T15:29:53;11.8;73.5
78694;SHT31;68029;51.978;5.646;2023-11-21T15:32:22;11.8;73.5
78694;SHT31;68029;51.978;5.646;2023-11-21T15:34:50;11.7;73.5
78694;SHT31;68029;51.978;5.646;2023-11-21T15:37:19;11.7;73.8
78694;SHT31;68029;51.978;5.646;2023-11-21T15:39:47;11.6;72.7
78694;SHT31;68029;51.978;5.646;2023-11-21T15:42:16;11.6;72.1
78694;SHT31;68029;51.978;5.646;2023-11-21T15:44:44;11.6;71.9
78694;SHT31;68029;51.978;5.646;2023-11-21T15:47:13;11.5;71.8
78694;SHT31;68029;51.978;5.646;2023-11-21T15:49:42;11.5;71.2
78694;SHT31;68029;51.978;5.646;2023-11-21T15:52:14;11.5;72.0
78694;SHT31;68029;51.978;5.646;2023-11-21T15:54:42;11.4;71.4
78694;SHT31;68029;51.978;5.646;2023-11-21T15:57:12;11.4;71.1
78694;SHT31;68029;51.978;5.646;2023-11-21T15:59:45;11.4;71.3
78694;SHT31;68029;51.978;5.646;2023-11-21T16:02:14;11.3;71.2
78694;SHT31;68029;51.978;5.646;2023-11-21T16:04:42;11.3;70.2
78694;SHT31;68029;51.978;5.646;2023-11-21T16:07:13;11.3;69.9
78694;SHT31;68029;51.978;5.646;2023-11-21T16:09:43;11.2;69.5
78694;SHT31;68029;51.978;5.646;2023-11-21T16:12:11;11.2;69.3
78694;SHT31;68029;51.978;5.646;2023-11-21T16:14:41;11.1;69.2
78694;SHT31;68029;51.978;5.646;2023-11-21T16:17:12;11.1;69.6
78694;SHT31;68029;51.978;5.646;2023-11-21T16:19:44;11.0;68.8
78694;SHT31;68029;51.978;5.646;2023-11-21T16:22:13;11.0;68.8